Time;durP1;ratioP1;P1;durP2;ratioP2;P2;SDS_P1;SDS_P2;PMS_P1;PMS_P2;Temp;Humidity;BMP_temperature;BMP_pressure;BME280_temperature;BME280_humidity;BME280_pressure;Samples;Min_cycle;Max_cycle;Signal;HPM_P1;HPM_P2
2024/04/12 00:02:11;;;;;;;19.05;12.93;;;;;;;12.89;100.00;69835.13;5519611;26;20368;-53
2024/04/12 00:04:45;;;;;;;18.05;12.82;;;;;;;12.87;100.00;69830.75;5515438;26;20073;-53
2024/04/12 00:07:17;;;;;;;19.23;14.02;;;;;;;12.83;100.00;69829.25;5518993;26;20012;-54
2024/04/12 00:09:52;;;;;;;18.17;13.38;;;;;;;12.84;100.00;69835.69;5520776;26;20005;-52
2024/04/12 00:12:26;;;;;;;17.45;13.38;;;;;;;12.85;100.00;69826.34;5518182;26;20108;-52
2024/04/12 00:15:15;;;;;;;17.95;13.05;;;;;;;12.83;100.00;69831.88;5488602;26;20398;-53
2024/04/12 00:17:48;;;;;;;19.00;13.98;;;;;;;12.85;100.00;69833.63;5522473;26;20097;-52
2024/04/12 00:20:20;;;;;;;19.08;13.65;;;;;;;12.83;100.00;69826.66;5517784;26;20006;-52
2024/04/12 00:22:55;;;;;;;20.52;13.30;;;;;;;12.82;100.00;69830.72;5518152;26;20086;-54
2024/04/12 00:25:26;;;;;;;21.27;13.95;;;;;;;12.84;100.00;69832.47;5517700;26;19997;-52
2024/04/12 00:27:57;;;;;;;21.08;13.77;;;;;;;12.81;100.00;69826.34;5517973;26;20005;-54
2024/04/12 00:30:41;;;;;;;21.52;14.43;;;;;;;12.82;100.00;69825.47;5522245;25;20025;-53
2024/04/12 00:33:12;;;;;;;17.00;13.10;;;;;;;12.83;100.00;69826.66;5522304;26;19998;-54
2024/04/12 00:35:49;;;;;;;19.45;13.60;;;;;;;12.83;100.00;69826.06;5522472;26;20001;-54
2024/04/12 00:38:17;;;;;;;20.73;13.88;;;;;;;12.89;100.00;69832.50;5517809;26;20038;-53
2024/04/12 00:40:52;;;;;;;19.77;13.77;;;;;;;12.88;100.00;69829.28;5517851;26;20018;-53
2024/04/12 00:43:20;;;;;;;18.08;13.93;;;;;;;12.87;100.00;69830.16;5521969;26;20479;-53
2024/04/12 00:45:54;;;;;;;18.40;13.73;;;;;;;12.83;100.00;69826.06;5518154;26;20046;-55
2024/04/12 00:48:26;;;;;;;18.73;13.68;;;;;;;12.85;100.00;69828.41;5517947;26;20005;-54
2024/04/12 00:51:01;;;;;;;18.88;13.73;;;;;;;12.88;100.00;69831.31;5489260;26;20005;-52
2024/04/12 00:53:30;;;;;;;21.38;14.68;;;;;;;12.85;100.00;69836.84;5522005;26;19994;-53
2024/04/12 00:56:03;;;;;;;20.92;14.43;;;;;;;12.88;100.00;69836.56;5521724;26;19994;-53
2024/04/12 00:58:32;;;;;;;21.48;14.32;;;;;;;12.85;100.00;69826.34;5521748;26;20025;-54
2024/04/12 01:01:10;;;;;;;21.25;14.30;;;;;;;12.83;100.00;69829.25;5517251;26;20040;-53
2024/04/12 01:03:46;;;;;;;22.58;15.90;;;;;;;12.85;100.00;69831.00;5519753;25;20018;-54
2024/04/12 01:06:24;;;;;;;21.02;15.93;;;;;;;12.85;100.00;69831.00;5525134;26;20436;-54
2024/04/12 01:08:54;;;;;;;21.95;15.73;;;;;;;12.86;100.00;69832.19;5522606;26;20013;-53
2024/04/12 01:11:27;;;;;;;21.83;15.10;;;;;;;12.85;100.00;69828.41;5521473;26;20016;-54
2024/04/12 01:13:56;;;;;;;20.55;15.65;;;;;;;12.84;100.00;69829.84;5520966;26;19993;-54
2024/04/12 01:16:27;;;;;;;21.58;16.02;;;;;;;12.82;100.00;69830.72;5520663;26;19997;-53
2024/04/12 01:18:58;;;;;;;21.40;15.05;;;;;;;12.84;100.00;69829.84;5522947;26;20393;-53
2024/04/12 01:21:31;;;;;;;20.48;15.65;;;;;;;12.82;100.00;69825.47;5520637;26;20017;-54
2024/04/12 01:24:05;;;;;;;20.45;15.95;;;;;;;12.83;100.00;69831.31;5520840;26;20503;-53
2024/04/12 01:26:39;;;;;;;20.60;16.27;;;;;;;12.82;100.00;69830.72;5524967;26;20052;-52
2024/04/12 01:29:09;;;;;;;23.08;17.52;;;;;;;12.81;100.00;69826.34;5525240;26;20394;-54
2024/04/12 01:31:41;;;;;;;21.13;16.92;;;;;;;12.82;100.00;69824.91;5522338;26;20001;-54
2024/04/12 01:34:13;;;;;;;21.50;16.88;;;;;;;12.79;100.00;69824.00;5520629;26;20372;-52
2024/04/12 01:36:45;;;;;;;21.70;16.45;;;;;;;12.79;100.00;69824.00;5518695;26;20001;-53
2024/04/12 01:39:13;;;;;;;21.60;16.15;;;;;;;12.77;100.00;69821.66;5523487;26;20449;-55
2024/04/12 01:41:47;;;;;;;22.48;17.33;;;;;;;12.79;100.00;69821.41;5520401;26;20004;-53
2024/04/12 01:44:24;;;;;;;25.20;19.00;;;;;;;12.74;100.00;69818.75;5520060;26;19997;-53
2024/04/12 01:46:56;;;;;;;22.00;17.25;;;;;;;12.76;100.00;69817.88;5519834;25;20126;-55
2024/04/12 01:49:24;;;;;;;22.63;17.58;;;;;;;12.78;100.00;69817.59;5521317;25;19993;-54
2024/04/12 01:51:56;;;;;;;26.80;17.90;;;;;;;12.77;100.00;69819.63;5522153;26;20055;-54
2024/04/12 01:54:24;;;;;;;25.60;17.92;;;;;;;12.76;100.00;69815.25;5520229;26;20001;-54
2024/04/12 01:56:57;;;;;;;24.25;17.40;;;;;;;12.75;100.00;69819.31;5522851;26;20008;-55
2024/04/12 01:59:25;;;;;;;24.70;18.33;;;;;;;12.73;100.00;69812.31;5524625;26;20034;-54
2024/04/12 02:01:56;;;;;;;24.40;19.08;;;;;;;12.73;100.00;69820.19;5524479;26;20448;-54
2024/04/12 02:04:24;;;;;;;24.50;17.83;;;;;;;12.74;100.00;69820.78;5522429;26;20330;-53
2024/04/12 02:06:56;;;;;;;24.80;18.67;;;;;;;12.72;100.00;69816.41;5518433;26;19990;-53
2024/04/12 02:09:28;;;;;;;23.63;17.00;;;;;;;12.72;100.00;69816.41;5490687;26;20049;-55
2024/04/12 02:12:03;;;;;;;22.75;17.42;;;;;;;12.73;100.00;69817.56;5520424;26;20832;-53
2024/04/12 02:14:31;;;;;;;24.17;17.85;;;;;;;12.69;100.00;69810.28;5520944;26;20342;-53
2024/04/12 02:17:02;;;;;;;25.55;19.42;;;;;;;12.68;100.00;69809.13;5523741;25;20437;-53
2024/04/12 02:19:30;;;;;;;24.17;18.27;;;;;;;12.68;100.00;69814.34;5519966;25;19994;-53
2024/04/12 02:22:03;;;;;;;25.08;18.20;;;;;;;12.70;100.00;69810.88;5519211;25;20001;-50
2024/04/12 02:24:31;;;;;;;;;;;;;;;12.65;100.00;69805.59;5521026;26;20061;-47
2024/04/12 02:27:05;;;;;;;26.20;16.90;;;;;;;12.66;100.00;69806.78;5520019;26;20316;-54
2024/04/12 02:29:34;;;;;;;23.00;17.45;;;;;;;12.66;100.00;69809.38;5520119;26;20045;-55
2024/04/12 02:32:05;;;;;;;21.98;16.50;;;;;;;12.68;100.00;69814.34;5487152;26;20016;-52
2024/04/12 02:34:33;;;;;;;23.83;16.08;;;;;;;12.63;100.00;69811.13;5523078;26;20007;-55
2024/04/12 02:37:06;;;;;;;20.45;15.55;;;;;;;12.63;100.00;69801.22;5523491;26;20041;-54
2024/04/12 02:39:40;;;;;;;22.92;16.33;;;;;;;12.62;100.00;69802.09;5519489;26;19994;-54
2024/04/12 02:42:18;;;;;;;20.38;15.50;;;;;;;12.62;100.00;69800.06;5522209;26;20377;-53
2024/04/12 02:44:46;;;;;;;21.77;15.07;;;;;;;12.63;100.00;69809.09;5524081;26;20337;-53
2024/04/12 02:47:17;;;;;;;21.80;15.32;;;;;;;12.61;100.00;69798.91;5523716;25;19997;-54
2024/04/12 02:49:45;;;;;;;19.52;14.90;;;;;;;12.59;100.00;69801.78;5524184;26;19993;-53
2024/04/12 02:52:17;;;;;;;21.35;16.00;;;;;;;12.56;100.00;69797.72;5524014;26;20001;-53
2024/04/12 02:54:48;;;;;;;20.08;14.65;;;;;;;12.57;100.00;69804.69;5524016;26;19997;-53
2024/04/12 02:57:22;;;;;;;21.95;15.95;;;;;;;12.57;100.00;69796.25;5520112;26;20009;-52
2024/04/12 02:59:52;;;;;;;22.05;14.88;;;;;;;12.59;100.00;69801.78;5518871;26;20065;-52
2024/04/12 03:02:23;;;;;;;21.98;15.68;;;;;;;12.59;100.00;69801.78;5522530;26;20005;-53
2024/04/12 03:04:52;;;;;;;21.45;15.77;;;;;;;12.57;100.00;69791.59;5516596;26;19989;-53
2024/04/12 03:07:23;;;;;;;21.40;15.82;;;;;;;12.57;100.00;69796.25;5521745;26;20065;-54
2024/04/12 03:09:53;;;;;;;22.63;16.35;;;;;;;12.55;100.00;69789.25;5520408;26;20008;-54
2024/04/12 03:12:26;;;;;;;19.92;15.18;;;;;;;12.58;100.00;69797.41;5519266;26;20368;-54
2024/04/12 03:14:54;;;;;;;20.05;15.60;;;;;;;12.56;100.00;69792.47;5522713;26;20350;-54
2024/04/12 03:17:25;;;;;;;22.17;15.38;;;;;;;12.56;100.00;69795.66;5518712;26;20025;-55
2024/04/12 03:19:54;;;;;;;22.20;15.40;;;;;;;12.53;100.00;69797.41;5517136;26;20895;-55
2024/04/12 03:22:24;;;;;;;21.35;15.43;;;;;;;12.51;100.00;69789.81;5518835;26;20016;-54
2024/04/12 03:24:52;;;;;;;19.95;15.60;;;;;;;12.52;100.00;69791.56;5522583;26;20025;-52
2024/04/12 03:27:26;;;;;;;21.98;15.57;;;;;;;12.51;100.00;69793.00;5521599;26;20025;-55
2024/04/12 03:29:54;;;;;;;18.95;14.55;;;;;;;12.54;100.00;69790.69;5523493;26;19993;-54
2024/04/12 03:32:32;;;;;;;19.77;14.10;;;;;;;12.51;100.00;69793.00;5523291;26;20005;-53
2024/04/12 03:35:00;;;;;;;18.88;13.98;;;;;;;12.50;100.00;69786.03;5523234;26;19997;-53
2024/04/12 03:37:39;;;;;;;19.05;14.07;;;;;;;12.51;100.00;69787.78;5490366;26;20518;-55
2024/04/12 03:40:16;;;;;;;17.73;13.90;;;;;;;12.50;100.00;69789.25;5518731;26;19993;-53
2024/04/12 03:42:50;;;;;;;18.33;13.43;;;;;;;12.55;100.00;69794.50;5518877;26;19997;-54
2024/04/12 03:45:18;;;;;;;17.30;14.48;;;;;;;12.54;100.00;69797.97;5522051;26;20063;-53
2024/04/12 03:47:50;;;;;;;17.40;13.35;;;;;;;12.52;100.00;69791.56;5522674;25;19993;-56
2024/04/12 03:50:18;;;;;;;17.27;13.02;;;;;;;12.52;100.00;69796.22;5523067;26;20009;-53
2024/04/12 03:52:51;;;;;;;16.38;13.20;;;;;;;12.53;100.00;69792.16;5523439;26;20002;-53
2024/04/12 03:55:19;;;;;;;16.23;12.90;;;;;;;12.52;100.00;69796.81;5519854;26;20361;-50
2024/04/12 03:57:53;;;;;;;15.43;12.20;;;;;;;12.53;100.00;69786.94;5518176;26;20005;-54
2024/04/12 04:00:24;;;;;;;15.65;12.70;;;;;;;12.50;100.00;69788.66;5518122;26;20037;-53
2024/04/12 04:02:58;;;;;;;16.77;13.13;;;;;;;12.50;100.00;69788.66;5518359;26;20016;-52
2024/04/12 04:05:29;;;;;;;17.75;13.40;;;;;;;12.51;100.00;69787.78;5519778;26;20067;-54
2024/04/12 04:08:00;;;;;;;18.05;13.32;;;;;;;12.49;100.00;69788.06;5520229;26;20012;-54
2024/04/12 04:10:31;;;;;;;17.42;12.35;;;;;;;12.52;100.00;69788.94;5519017;25;20052;-52
2024/04/12 04:13:03;;;;;;;16.02;12.48;;;;;;;12.55;100.00;69794.50;5522350;26;19997;-53
2024/04/12 04:15:36;;;;;;;16.83;11.73;;;;;;;12.52;100.00;69793.63;5522641;26;20013;-54
2024/04/12 04:18:10;;;;;;;16.40;12.38;;;;;;;12.50;100.00;69793.88;5519777;26;20005;-52
2024/04/12 04:20:42;;;;;;;16.35;12.23;;;;;;;12.55;100.00;69799.72;5516336;26;20086;-52
2024/04/12 04:23:10;;;;;;;17.52;12.32;;;;;;;12.52;100.00;69788.94;5517921;26;20065;-52
2024/04/12 04:25:44;;;;;;;17.42;12.80;;;;;;;12.52;100.00;69796.81;5521955;26;19997;-54
2024/04/12 04:28:15;;;;;;;16.27;12.30;;;;;;;12.52;100.00;69794.19;5522657;26;20587;-53
2024/04/12 04:30:45;;;;;;;17.33;12.40;;;;;;;12.50;100.00;69783.41;5522483;25;20006;-54
2024/04/12 04:33:13;;;;;;;18.85;13.50;;;;;;;12.48;100.00;69788.94;5489963;26;20037;-54
2024/04/12 04:35:45;;;;;;;15.98;11.93;;;;;;;12.48;100.00;69791.56;5482540;26;20005;-54
2024/04/12 04:38:16;;;;;;;20.23;13.23;;;;;;;12.46;100.00;69781.94;5518623;26;20288;-52
2024/04/12 04:40:52;;;;;;;16.67;12.32;;;;;;;12.50;100.00;69783.41;5521249;26;20452;-55
2024/04/12 04:43:23;;;;;;;16.30;12.45;;;;;;;12.50;100.00;69789.25;5523684;26;20034;-54
2024/04/12 04:45:54;;;;;;;16.92;12.65;;;;;;;12.48;100.00;69789.50;5521083;26;19990;-55
2024/04/12 04:48:22;;;;;;;18.13;12.55;;;;;;;12.50;100.00;69788.66;5520278;26;20005;-55
2024/04/12 04:50:53;;;;;;;16.08;13.07;;;;;;;12.52;100.00;69793.63;5519721;26;20001;-54
2024/04/12 04:53:24;;;;;;;16.05;12.27;;;;;;;12.50;100.00;69789.25;5525217;26;20065;-54
2024/04/12 04:55:53;;;;;;;15.63;12.10;;;;;;;12.51;100.00;69789.81;5522449;26;20386;-53
2024/04/12 04:58:28;;;;;;;16.58;11.75;;;;;;;12.51;100.00;69793.00;5488471;26;19994;-54
2024/04/12 05:00:58;;;;;;;16.63;11.77;;;;;;;12.49;100.00;69782.84;5524971;26;20325;-55
2024/04/12 05:03:28;;;;;;;16.20;12.20;;;;;;;12.50;100.00;69791.25;5521234;26;20041;-55
2024/04/12 05:05:57;;;;;;;16.05;11.48;;;;;;;12.50;100.00;69783.41;5520328;25;20440;-53
2024/04/12 05:08:27;;;;;;;18.42;12.95;;;;;;;12.52;100.00;69788.38;5525140;26;20429;-54
2024/04/12 05:10:56;;;;;;;16.88;12.05;;;;;;;12.53;100.00;69797.41;5525270;25;20425;-53
2024/04/12 05:13:30;;;;;;;15.68;11.25;;;;;;;12.52;100.00;69791.56;5525096;26;19998;-51
2024/04/12 05:15:58;;;;;;;16.20;11.98;;;;;;;12.52;100.00;69788.38;5525294;26;19997;-54
2024/04/12 05:18:29;;;;;;;16.88;11.77;;;;;;;12.53;100.00;69786.94;5524821;26;19997;-54
2024/04/12 05:20:57;;;;;;;16.05;10.90;;;;;;;12.52;100.00;69791.56;5525008;26;20344;-53
2024/04/12 05:23:29;;;;;;;16.08;11.35;;;;;;;12.55;100.00;69794.50;5524936;26;20029;-55
2024/04/12 05:25:57;;;;;;;15.65;11.45;;;;;;;12.56;100.00;69795.09;5524980;26;20018;-53
2024/04/12 05:28:30;;;;;;;15.95;11.38;;;;;;;12.57;100.00;69796.25;5524877;26;19993;-53
2024/04/12 05:30:59;;;;;;;17.05;11.63;;;;;;;12.57;100.00;69794.22;5522474;26;20009;-54
2024/04/12 05:33:32;;;;;;;15.32;10.85;;;;;;;12.60;100.00;69802.38;5521285;25;20033;-53
2024/04/12 05:36:01;;;;;;;17.55;11.18;;;;;;;12.61;100.00;69800.91;5524385;26;19997;-53
2024/04/12 05:38:34;;;;;;;17.45;11.77;;;;;;;12.65;100.00;69806.19;5525034;26;20333;-53
2024/04/12 05:41:04;;;;;;;16.33;11.23;;;;;;;12.70;100.00;69816.09;5525295;26;20005;-54
2024/04/12 05:43:38;;;;;;;16.80;11.43;;;;;;;12.72;100.00;69815.81;5525120;26;20332;-53
2024/04/12 05:46:06;;;;;;;15.57;11.05;;;;;;;12.74;100.00;69812.94;5524859;26;19997;-54
2024/04/12 05:48:39;;;;;;;18.65;11.48;;;;;;;12.77;100.00;69821.66;5524870;26;20009;-53
2024/04/12 05:51:09;;;;;;;17.48;11.07;;;;;;;12.80;100.00;69819.94;5523757;26;20333;-54
2024/04/12 05:53:40;;;;;;;16.83;10.02;;;;;;;12.83;100.00;69823.44;5524746;26;20005;-53
2024/04/12 05:56:25;;;;;;;17.65;10.25;;;;;;;12.89;100.00;69832.50;5522695;26;20389;-53
2024/04/12 05:59:01;;;;;;;16.48;10.18;;;;;;;12.96;100.00;69843.28;5520265;26;20965;-53
2024/04/12 06:01:33;;;;;;;17.38;10.35;;;;;;;13.00;100.00;69840.69;5524601;26;20358;-54
2024/04/12 06:04:05;;;;;;;17.02;10.02;;;;;;;13.03;100.00;69848.84;5524177;26;20020;-47
2024/04/12 06:06:34;;;;;;;15.45;9.98;;;;;;;13.11;100.00;69860.25;5524605;26;20430;-47
2024/04/12 06:09:05;;;;;;;15.98;10.05;;;;;;;13.12;100.00;69864.03;5524471;26;20034;-46
2024/04/12 06:11:44;;;;;;;19.42;10.05;;;;;;;13.16;100.00;69866.69;5524966;25;19997;-47
2024/04/12 06:14:15;;;;;;;14.73;9.55;;;;;;;13.18;100.00;69869.03;5524072;26;20033;-46
2024/04/12 06:16:47;;;;;;;16.85;10.23;;;;;;;13.22;100.00;69865.25;5521192;26;19994;-46
2024/04/12 06:19:15;;;;;;;15.60;9.73;;;;;;;13.28;100.00;69877.50;5519517;26;19997;-46
2024/04/12 06:21:46;;;;;;;15.80;10.20;;;;;;;13.29;100.00;69880.72;5517793;26;20378;-47
2024/04/12 06:24:16;;;;;;;14.48;9.63;;;;;;;13.30;100.00;69885.09;5520061;26;20001;-47
2024/04/12 06:26:49;;;;;;;16.17;9.98;;;;;;;13.36;100.00;69883.69;5524169;26;19998;-46
2024/04/12 06:29:22;;;;;;;17.05;10.85;;;;;;;13.40;100.00;69888.34;5521607;26;20078;-50
2024/04/12 06:32:08;;;;;;;17.33;11.40;;;;;;;13.45;100.00;69894.22;5519060;26;19998;-50
2024/04/12 06:34:37;;;;;;;17.38;11.07;;;;;;;13.48;100.00;69899.75;5523806;26;20867;-49
2024/04/12 06:37:10;;;;;;;18.58;11.65;;;;;;;13.53;100.00;69910.84;5523793;26;20338;-47
2024/04/12 06:39:40;;;;;;;17.95;11.02;;;;;;;13.56;100.00;69906.50;5524086;26;20450;-50
2024/04/12 06:42:11;;;;;;;17.27;11.77;;;;;;;13.59;100.00;69917.84;5523967;26;20460;-47
2024/04/12 06:44:49;;;;;;;21.00;11.60;;;;;;;13.62;100.00;69916.13;5519901;26;20077;-46
2024/04/12 06:47:21;;;;;;;19.40;12.75;;;;;;;13.65;100.00;69917.03;5520475;26;20002;-47
2024/04/12 06:49:50;;;;;;;19.00;12.23;;;;;;;13.66;100.00;69917.59;5524444;26;20496;-46
2024/04/12 06:52:23;;;;;;;19.88;12.13;;;;;;;13.70;100.00;69924.91;5523897;26;20073;-46
2024/04/12 06:54:52;;;;;;;18.20;12.70;;;;;;;13.75;100.00;69927.56;5523843;26;20077;-45
2024/04/12 06:57:25;;;;;;;20.25;13.52;;;;;;;13.79;100.00;69934.84;5523660;25;20073;-46
2024/04/12 06:59:58;;;;;;;18.75;13.02;;;;;;;13.84;100.00;69943.91;5523955;26;20028;-46
2024/04/12 07:02:31;;;;;;;18.10;12.63;;;;;;;13.88;100.00;69950.63;5523271;26;20447;-46
2024/04/12 07:05:00;;;;;;;17.67;13.05;;;;;;;13.91;100.00;69946.28;5523395;26;20469;-49
2024/04/12 07:07:32;;;;;;;19.48;13.20;;;;;;;13.95;100.00;69956.19;5523799;25;20064;-46
2024/04/12 07:10:09;;;;;;;23.70;13.50;;;;;;;14.03;100.00;69962.94;5491215;26;20009;-50
2024/04/12 07:12:43;;;;;;;21.30;13.02;;;;;;;14.07;100.00;69966.44;5523766;26;20013;-46
2024/04/12 07:15:21;;;;;;;18.77;12.32;;;;;;;14.12;100.00;69972.31;5523516;26;20008;-47
2024/04/12 07:17:57;;;;;;;21.10;13.27;;;;;;;14.11;100.00;69971.72;5523744;26;20038;-46
2024/04/12 07:20:27;;;;;;;18.08;13.32;;;;;;;14.13;100.00;69970.84;5523354;25;20452;-50
2024/04/12 07:22:59;;;;;;;22.75;14.05;;;;;;;14.18;100.00;69979.91;5523580;26;20001;-51
2024/04/12 07:25:33;;;;;;;20.38;13.40;;;;;;;14.20;100.00;69979.03;5520835;26;20005;-47
2024/04/12 07:28:06;;;;;;;18.45;12.70;;;;;;;14.25;100.00;69982.28;5519534;25;19994;-49
2024/04/12 07:30:37;;;;;;;19.65;12.82;;;;;;;14.30;100.00;69990.16;5522307;26;20371;-47
2024/04/12 07:33:11;;;;;;;20.13;13.27;;;;;;;14.33;100.00;69993.69;5519087;26;20001;-47
2024/04/12 07:35:40;;;;;;;18.40;12.82;;;;;;;14.40;100.00;69998.63;5518241;25;20025;-47
2024/04/12 07:38:11;;;;;;;19.05;12.52;;;;;;;14.42;100.00;70008.88;5522911;26;20073;-48
2024/04/12 07:40:42;;;;;;;18.95;12.20;;;;;;;14.48;100.00;70011.22;5523252;26;20005;-47
2024/04/12 07:43:13;;;;;;;17.25;11.60;;;;;;;14.50;100.00;70016.19;5523156;25;20012;-48
2024/04/12 07:45:49;;;;;;;21.08;11.50;;;;;;;14.55;100.00;70024.09;5523044;26;20005;-50
2024/04/12 07:48:27;;;;;;;17.35;11.52;;;;;;;14.58;100.00;70024.41;5520969;26;20005;-47
2024/04/12 07:51:00;;;;;;;17.65;11.52;;;;;;;14.58;100.00;70024.97;5516925;26;20001;-46
2024/04/12 07:53:34;;;;;;;19.30;12.32;;;;;;;14.62;100.00;70029.06;5522576;26;20005;-50
2024/04/12 07:56:08;;;;;;;18.88;11.57;;;;;;;14.63;100.00;70033.47;5522914;26;20390;-47
2024/04/12 07:58:42;;;;;;;18.70;11.75;;;;;;;14.68;100.00;70036.72;5522913;25;19997;-49
2024/04/12 08:01:16;;;;;;;;;;;;;;;14.75;100.00;70041.69;5523315;26;19993;-48
2024/04/12 08:03:50;;;;;;;21.83;12.57;;;;;;;14.76;100.00;70047.53;5522641;25;20238;-49
2024/04/12 08:06:20;;;;;;;19.10;12.60;;;;;;;14.81;100.00;70048.13;5523163;26;20012;-48
2024/04/12 08:09:03;;;;;;;16.40;11.68;;;;;;;14.87;100.00;70055.75;5523224;26;20069;-47
2024/04/12 08:11:34;;;;;;;20.92;12.20;;;;;;;14.94;100.00;70068.59;5522799;25;20069;-47
2024/04/12 08:14:19;;;;;;;21.05;11.82;;;;;;;14.98;100.00;70068.03;5521525;26;20008;-46
2024/04/12 08:16:56;;;;;;;19.42;12.15;;;;;;;15.03;100.00;70075.94;5522938;26;20417;-46
2024/04/12 08:19:38;;;;;;;20.80;11.20;;;;;;;15.12;100.00;70085.88;5522799;26;20461;-47
2024/04/12 08:22:07;;;;;;;17.83;11.32;;;;;;;15.20;100.00;70090.59;5522452;26;19993;-50
2024/04/12 08:24:40;;;;;;;20.50;11.77;;;;;;;15.29;100.00;70103.16;5522433;26;20009;-47
2024/04/12 08:27:09;;;;;;;19.10;11.00;;;;;;;15.30;100.00;70103.75;5522710;25;20036;-48
2024/04/12 08:29:40;;;;;;;18.63;11.05;;;;;;;15.35;100.00;70112.22;5522146;26;20030;-46
2024/04/12 08:32:13;;;;;;;17.00;10.60;;;;;;;15.34;100.00;70111.06;5522289;26;20104;-49
2024/04/12 08:34:45;;;;;;;18.02;11.05;;;;;;;15.34;100.00;70111.06;5522193;26;19998;-49
2024/04/12 08:37:14;;;;;;;20.13;11.40;;;;;;;15.42;100.00;70117.22;5522696;26;20005;-48
2024/04/12 08:39:45;;;;;;;19.05;11.02;;;;;;;15.43;100.00;70118.97;5522383;25;20050;-50
2024/04/12 08:42:15;;;;;;;18.48;11.13;;;;;;;15.52;100.00;70132.16;5522242;26;20465;-49
2024/04/12 08:44:47;;;;;;;18.20;10.77;;;;;;;15.59;100.00;70137.13;5519415;26;20009;-50
2024/04/12 08:47:30;;;;;;;17.77;10.93;;;;;;;15.64;100.00;70140.38;5517611;26;19998;-50
2024/04/12 08:50:03;;;;;;;;;;;;;;;15.73;100.00;70152.94;5516195;26;20404;-48
2024/04/12 08:52:42;;;;;;;;;;;;;;;15.81;100.00;70164.41;5519234;26;20321;-50
2024/04/12 08:55:20;;;;;;;18.35;11.18;;;;;;;15.89;100.00;70174.34;5521839;25;19931;-47
2024/04/12 08:57:52;;;;;;;19.83;11.52;;;;;;;15.96;100.00;70181.97;5522013;26;20065;-47
2024/04/12 09:00:28;;;;;;;;;;;;;;;16.07;100.00;70191.06;5521500;26;20037;-49
2024/04/12 09:03:02;;;;;;;16.88;10.80;;;;;;;16.14;100.00;70202.50;5484946;26;19924;-48
2024/04/12 09:05:38;;;;;;;17.65;10.93;;;;;;;16.21;100.00;70210.09;5519462;26;20017;-48
2024/04/12 09:08:06;;;;;;;17.75;10.70;;;;;;;16.20;100.00;70209.50;5521283;26;20008;-50
2024/04/12 09:10:39;;;;;;;17.70;10.32;;;;;;;16.26;100.00;70218.59;5521468;26;20457;-50
2024/04/12 09:13:14;;;;;;;15.60;10.35;;;;;;;16.35;100.00;70223.31;5521374;26;20012;-49
2024/04/12 09:15:45;;;;;;;17.55;10.75;;;;;;;16.36;100.00;70225.06;5521530;25;20016;-47
2024/04/12 09:18:26;;;;;;;16.30;10.15;;;;;;;16.46;100.00;70238.25;5521440;26;20500;-45
2024/04/12 09:21:01;;;;;;;17.38;9.98;;;;;;;16.61;100.00;70255.81;5521793;26;20446;-49
2024/04/12 09:23:41;;;;;;;16.70;9.05;;;;;;;16.72;100.00;70262.88;5521276;26;20435;-46
2024/04/12 09:26:22;;;;;;;15.52;9.45;;;;;;;16.87;100.00;70285.13;5524523;26;20313;-51
2024/04/12 09:29:01;;;;;;;16.88;10.05;;;;;;;16.98;100.00;70295.41;5525209;26;20008;-48
2024/04/12 09:34:29;;;;;;;14.45;9.07;;;;;;;17.30;100.00;70334.44;5524785;25;20270;-48
2024/04/12 09:37:28;;;;;;;13.98;8.32;;;;;;;17.53;100.00;70360.81;5522734;26;20345;-55
2024/04/12 09:40:16;;;;;;;15.40;8.85;;;;;;;17.64;100.00;70372.53;5519832;26;20029;-48
2024/04/12 09:43:24;;;;;;;16.30;7.77;;;;;;;17.77;100.00;70387.81;5522880;26;19993;-49
2024/04/12 09:46:05;;;;;;;16.80;8.93;;;;;;;17.94;100.00;70412.47;5519895;26;19993;-46
2024/04/12 10:39:49;;;;;;;15.05;7.72;;;;;;;19.18;100.00;70548.09;5523705;26;20430;-51
2024/04/12 10:42:25;;;;;;;14.93;7.60;;;;;;;19.13;100.00;70542.81;5523695;25;19994;-49
2024/04/12 10:44:59;;;;;;;12.38;7.25;;;;;;;19.19;100.00;70549.84;5523969;26;20492;-51
2024/04/12 10:47:36;;;;;;;11.75;7.60;;;;;;;19.33;100.00;70563.06;5524083;26;20013;-51
2024/04/12 10:50:04;;;;;;;12.45;6.95;;;;;;;19.58;100.00;70594.50;5523773;26;20012;-47
2024/04/12 10:52:35;;;;;;;15.52;7.40;;;;;;;19.76;100.00;70614.47;5524045;26;20436;-50
2024/04/12 10:55:09;;;;;;;13.60;7.13;;;;;;;19.86;100.00;70628.91;5491182;26;20437;-49
2024/04/12 10:57:47;;;;;;;12.70;7.22;;;;;;;19.95;100.00;70638.91;5524012;26;20413;-46
2024/04/12 11:00:16;;;;;;;15.05;7.47;;;;;;;20.19;100.00;70663.88;5523639;25;20009;-50
2024/04/12 11:02:54;;;;;;;13.85;6.88;;;;;;;20.24;100.00;70669.16;5523506;26;20038;-50
2024/04/12 11:05:44;;;;;;;13.50;6.82;;;;;;;20.32;100.00;70681.22;5523462;26;20053;-49
2024/04/12 11:08:16;;;;;;;12.80;6.97;;;;;;;20.32;100.00;70675.91;5523830;25;20077;-48
2024/04/12 11:11:15;;;;;;;13.18;6.22;;;;;;;20.50;100.00;70693.25;5523906;26;20318;-51
2024/04/12 11:13:52;;;;;;;14.25;6.40;;;;;;;20.93;100.00;70751.19;5491039;26;20007;-48
2024/04/12 11:33:13;;;;;;;11.98;5.15;;;;;;;22.02;100.00;70869.44;5518140;26;19994;-48
2024/04/12 11:35:53;;;;;;;9.68;5.25;;;;;;;21.85;100.00;70852.69;5515935;26;20370;-49
2024/04/12 11:38:27;;;;;;;10.27;4.57;;;;;;;21.52;100.00;70815.00;5521989;26;20002;-50
2024/04/12 11:40:57;;;;;;;10.02;4.97;;;;;;;21.66;100.00;70831.50;5523242;26;20006;-47
2024/04/12 11:43:28;;;;;;;9.10;4.28;;;;;;;21.82;100.00;70851.81;5490569;26;19997;-46
2024/04/12 11:46:01;;;;;;;11.17;4.80;;;;;;;21.87;100.00;70852.38;5520797;26;20314;-48
2024/04/12 11:48:33;;;;;;;9.55;4.43;;;;;;;22.16;100.00;70891.22;5517241;26;20302;-49
2024/04/12 11:51:08;;;;;;;9.23;4.22;;;;;;;22.51;100.00;70930.69;5516896;26;20008;-47
2024/04/12 11:53:39;;;;;;;10.57;4.28;;;;;;;22.93;100.00;70976.91;5519144;26;19994;-51
2024/04/12 11:56:09;;;;;;;10.13;4.25;;;;;;;23.00;100.00;70983.97;5490464;26;20005;-49
2024/04/12 11:58:43;;;;;;;10.52;4.72;;;;;;;22.92;100.00;70973.06;5522589;26;20005;-48
2024/04/12 12:01:14;;;;;;;9.50;4.60;;;;;;;22.71;100.00;70951.56;5518461;26;20444;-45
2024/04/12 12:03:45;;;;;;;10.10;4.18;;;;;;;22.96;100.00;70980.44;5518265;26;20002;-48
2024/04/12 12:06:13;;;;;;;9.02;3.97;;;;;;;23.16;100.00;70999.56;5522253;26;20070;-49
2024/04/12 12:08:45;;;;;;;9.77;4.22;;;;;;;23.32;100.00;71015.19;5522315;26;20016;-47
2024/04/12 12:11:14;;;;;;;7.75;3.47;;;;;;;23.30;100.00;71016.06;5522569;26;20001;-53
2024/04/12 12:13:44;;;;;;;7.25;3.97;;;;;;;23.57;100.00;71052.00;5522600;26;20029;-50
2024/04/12 12:16:15;;;;;;;8.65;3.97;;;;;;;23.76;100.00;71074.41;5522613;26;20319;-49
2024/04/12 12:18:47;;;;;;;8.05;4.22;;;;;;;23.92;98.55;71089.44;5522268;26;19998;-48
2024/04/12 12:21:17;;;;;;;8.88;3.72;;;;;;;23.90;95.88;71089.75;5522307;26;20004;-48
2024/04/12 12:23:48;;;;;;;7.63;4.05;;;;;;;24.11;98.56;71111.81;5522282;26;20042;-48
2024/04/12 12:26:16;;;;;;;10.23;4.60;;;;;;;24.17;97.71;71118.31;5522341;26;20008;-50
2024/04/12 12:28:51;;;;;;;8.32;4.55;;;;;;;24.22;96.26;71123.63;5522295;26;20017;-49
2024/04/12 12:31:21;;;;;;;7.95;4.40;;;;;;;24.32;95.29;71137.47;5522216;26;19997;-51
2024/04/12 12:33:52;;;;;;;10.30;4.32;;;;;;;24.12;96.97;71115.09;5522015;26;20557;-48
2024/04/12 12:36:23;;;;;;;9.30;4.68;;;;;;;24.29;95.32;71131.88;5522080;26;20002;-47
2024/04/12 12:38:54;;;;;;;11.48;4.70;;;;;;;24.27;99.01;71129.50;5489389;26;20487;-49
2024/04/12 12:41:23;;;;;;;9.55;4.45;;;;;;;24.31;96.69;71134.22;5522233;26;19994;-47
2024/04/12 12:43:54;;;;;;;8.57;4.00;;;;;;;24.42;98.96;71147.19;5522014;26;20328;-48
2024/04/12 12:46:26;;;;;;;11.93;4.32;;;;;;;24.56;97.77;71160.44;5521742;25;20065;-47
2024/04/12 12:48:57;;;;;;;11.57;4.50;;;;;;;24.39;93.65;71138.31;5521840;26;20012;-48
2024/04/12 12:51:26;;;;;;;8.98;3.65;;;;;;;24.51;93.23;71156.63;5521919;26;20021;-47